sensor_id;sensor_type;location;lat;lon;timestamp;temperature;humidity
15749;DHT22;7976;52.526;13.326;2023-03-31T00:00:11;10.50;99.90
15749;DHT22;7976;52.526;13.326;2023-03-31T00:02:39;10.50;99.90
15749;DHT22;7976;52.526;13.326;2023-03-31T00:05:07;10.50;99.90
15749;DHT22;7976;52.526;13.326;2023-03-31T00:07:36;10.50;99.90
15749;DHT22;7976;52.526;13.326;2023-03-31T00:10:04;10.50;99.90
15749;DHT22;7976;52.526;13.326;2023-03-31T00:12:32;10.50;99.90
15749;DHT22;7976;52.526;13.326;2023-03-31T00:14:59;10.50;99.90
15749;DHT22;7976;52.526;13.326;2023-03-31T00:17:26;10.50;99.90
15749;DHT22;7976;52.526;13.326;2023-03-31T00:19:53;10.50;99.90
15749;DHT22;7976;52.526;13.326;2023-03-31T00:22:24;10.50;99.90
15749;DHT22;7976;52.526;13.326;2023-03-31T00:24:54;10.50;99.90
15749;DHT22;7976;52.526;13.326;2023-03-31T00:27:20;10.50;99.90
15749;DHT22;7976;52.526;13.326;2023-03-31T00:29:47;10.50;99.90
15749;DHT22;7976;52.526;13.326;2023-03-31T00:32:15;10.50;99.90
15749;DHT22;7976;52.526;13.326;2023-03-31T00:34:42;10.50;99.90
15749;DHT22;7976;52.526;13.326;2023-03-31T00:37:10;10.50;99.90
15749;DHT22;7976;52.526;13.326;2023-03-31T00:39:40;10.50;99.90
15749;DHT22;7976;52.526;13.326;2023-03-31T00:42:10;10.50;99.90
15749;DHT22;7976;52.526;13.326;2023-03-31T00:47:50;10.40;99.90
15749;DHT22;7976;52.526;13.326;2023-03-31T00:50:22;10.40;99.90
15749;DHT22;7976;52.526;13.326;2023-03-31T00:52:55;10.40;99.90
15749;DHT22;7976;52.526;13.326;2023-03-31T00:55:30;10.40;99.90
15749;DHT22;7976;52.526;13.326;2023-03-31T00:58:02;10.40;99.90
15749;DHT22;7976;52.526;13.326;2023-03-31T01:00:32;10.40;99.90
15749;DHT22;7976;52.526;13.326;2023-03-31T01:03:02;10.30;99.90
15749;DHT22;7976;52.526;13.326;2023-03-31T01:05:38;10.40;99.90
15749;DHT22;7976;52.526;13.326;2023-03-31T01:08:10;10.40;99.90
15749;DHT22;7976;52.526;13.326;2023-03-31T01:10:40;10.30;99.90
15749;DHT22;7976;52.526;13.326;2023-03-31T01:13:12;10.30;99.90
15749;DHT22;7976;52.526;13.326;2023-03-31T01:15:42;10.20;99.90
15749;DHT22;7976;52.526;13.326;2023-03-31T01:18:10;10.20;99.90
15749;DHT22;7976;52.526;13.326;2023-03-31T01:20:56;10.10;99.90
15749;DHT22;7976;52.526;13.326;2023-03-31T01:24:21;10.10;99.90
15749;DHT22;7976;52.526;13.326;2023-03-31T01:27:19;10.10;99.90
15749;DHT22;7976;52.526;13.326;2023-03-31T01:30:28;10.10;99.90
15749;DHT22;7976;52.526;13.326;2023-03-31T01:33:52;10.00;99.90
15749;DHT22;7976;52.526;13.326;2023-03-31T01:40:24;9.90;99.90
15749;DHT22;7976;52.526;13.326;2023-03-31T01:43:05;9.90;99.90
15749;DHT22;7976;52.526;13.326;2023-03-31T01:45:46;9.90;99.90
15749;DHT22;7976;52.526;13.326;2023-03-31T01:48:27;9.90;99.90
15749;DHT22;7976;52.526;13.326;2023-03-31T01:51:03;9.90;99.90
15749;DHT22;7976;52.526;13.326;2023-03-31T01:53:44;9.90;99.90
15749;DHT22;7976;52.526;13.326;2023-03-31T01:56:21;9.90;99.90
15749;DHT22;7976;52.526;13.326;2023-03-31T01:58:56;9.90;99.90
15749;DHT22;7976;52.526;13.326;2023-03-31T02:01:28;9.90;99.90
15749;DHT22;7976;52.526;13.326;2023-03-31T02:07:39;9.90;99.90
15749;DHT22;7976;52.526;13.326;2023-03-31T02:10:14;9.90;99.90
15749;DHT22;7976;52.526;13.326;2023-03-31T02:12:44;9.90;99.90
15749;DHT22;7976;52.526;13.326;2023-03-31T02:15:15;9.90;99.90
15749;DHT22;7976;52.526;13.326;2023-03-31T02:17:48;9.90;99.90
15749;DHT22;7976;52.526;13.326;2023-03-31T02:20:20;9.90;99.90
15749;DHT22;7976;52.526;13.326;2023-03-31T02:22:52;9.90;99.90
15749;DHT22;7976;52.526;13.326;2023-03-31T02:25:22;10.00;99.90
15749;DHT22;7976;52.526;13.326;2023-03-31T02:27:59;10.00;99.90
15749;DHT22;7976;52.526;13.326;2023-03-31T02:30:33;10.00;99.90
15749;DHT22;7976;52.526;13.326;2023-03-31T02:33:06;10.00;99.90
15749;DHT22;7976;52.526;13.326;2023-03-31T02:35:34;10.10;99.90
15749;DHT22;7976;52.526;13.326;2023-03-31T02:38:01;10.10;99.90
15749;DHT22;7976;52.526;13.326;2023-03-31T02:40:31;10.20;99.90
15749;DHT22;7976;52.526;13.326;2023-03-31T02:43:00;10.20;99.90
15749;DHT22;7976;52.526;13.326;2023-03-31T02:45:39;10.20;99.90
15749;DHT22;7976;52.526;13.326;2023-03-31T02:48:10;10.20;99.90
15749;DHT22;7976;52.526;13.326;2023-03-31T02:51:06;10.20;99.90
15749;DHT22;7976;52.526;13.326;2023-03-31T02:54:13;10.20;99.90
15749;DHT22;7976;52.526;13.326;2023-03-31T02:57:11;10.30;99.90
15749;DHT22;7976;52.526;13.326;2023-03-31T02:59:56;10.30;99.90
15749;DHT22;7976;52.526;13.326;2023-03-31T03:02:52;10.30;99.90
15749;DHT22;7976;52.526;13.326;2023-03-31T03:05:40;10.30;99.90
15749;DHT22;7976;52.526;13.326;2023-03-31T03:08:56;10.30;99.90
15749;DHT22;7976;52.526;13.326;2023-03-31T03:11:38;10.30;99.90
15749;DHT22;7976;52.526;13.326;2023-03-31T03:14:17;10.40;99.90
15749;DHT22;7976;52.526;13.326;2023-03-31T03:16:59;10.40;99.90
15749;DHT22;7976;52.526;13.326;2023-03-31T03:19:31;10.30;99.90
15749;DHT22;7976;52.526;13.326;2023-03-31T03:21:58;10.40;99.90
15749;DHT22;7976;52.526;13.326;2023-03-31T03:24:25;10.40;99.90
15749;DHT22;7976;52.526;13.326;2023-03-31T03:26:54;10.40;99.90
15749;DHT22;7976;52.526;13.326;2023-03-31T03:29:22;10.40;99.90
15749;DHT22;7976;52.526;13.326;2023-03-31T03:31:48;10.40;99.90
15749;DHT22;7976;52.526;13.326;2023-03-31T03:34:16;10.40;99.90
15749;DHT22;7976;52.526;13.326;2023-03-31T03:36:45;10.50;99.90
15749;DHT22;7976;52.526;13.326;2023-03-31T03:39:12;10.50;99.90
15749;DHT22;7976;52.526;13.326;2023-03-31T03:41:39;10.50;99.90
15749;DHT22;7976;52.526;13.326;2023-03-31T03:44:06;10.50;99.90
15749;DHT22;7976;52.526;13.326;2023-03-31T03:46:33;10.50;99.90
15749;DHT22;7976;52.526;13.326;2023-03-31T03:48:59;10.50;99.90
15749;DHT22;7976;52.526;13.326;2023-03-31T03:51:28;10.50;99.90
15749;DHT22;7976;52.526;13.326;2023-03-31T03:53:54;10.50;99.90
15749;DHT22;7976;52.526;13.326;2023-03-31T03:56:21;10.50;99.90
15749;DHT22;7976;52.526;13.326;2023-03-31T03:58:49;10.50;99.90
15749;DHT22;7976;52.526;13.326;2023-03-31T04:01:15;10.50;99.90
15749;DHT22;7976;52.526;13.326;2023-03-31T04:03:42;10.50;99.90
15749;DHT22;7976;52.526;13.326;2023-03-31T04:06:10;10.50;99.90
15749;DHT22;7976;52.526;13.326;2023-03-31T04:08:38;10.50;99.90
15749;DHT22;7976;52.526;13.326;2023-03-31T04:11:11;10.50;99.90
15749;DHT22;7976;52.526;13.326;2023-03-31T04:13:39;10.50;99.90
15749;DHT22;7976;52.526;13.326;2023-03-31T04:16:07;10.50;99.90
15749;DHT22;7976;52.526;13.326;2023-03-31T04:18:33;10.50;99.90
15749;DHT22;7976;52.526;13.326;2023-03-31T04:21:02;10.50;99.90
15749;DHT22;7976;52.526;13.326;2023-03-31T04:23:32;10.60;99.90
15749;DHT22;7976;52.526;13.326;2023-03-31T04:26:04;10.50;99.90
15749;DHT22;7976;52.526;13.326;2023-03-31T04:28:33;10.50;99.90
15749;DHT22;7976;52.526;13.326;2023-03-31T04:31:00;10.50;99.90
15749;DHT22;7976;52.526;13.326;2023-03-31T04:33:28;10.40;99.90
15749;DHT22;7976;52.526;13.326;2023-03-31T04:35:55;10.50;99.90
15749;DHT22;7976;52.526;13.326;2023-03-31T04:38:23;10.40;99.90
15749;DHT22;7976;52.526;13.326;2023-03-31T04:40:52;10.40;99.90
15749;DHT22;7976;52.526;13.326;2023-03-31T04:43:22;10.40;99.90
15749;DHT22;7976;52.526;13.326;2023-03-31T04:45:48;10.50;99.90
15749;DHT22;7976;52.526;13.326;2023-03-31T04:48:16;10.50;99.90
15749;DHT22;7976;52.526;13.326;2023-03-31T04:50:42;10.50;99.90
15749;DHT22;7976;52.526;13.326;2023-03-31T04:53:12;10.50;99.90
15749;DHT22;7976;52.526;13.326;2023-03-31T04:55:38;10.50;99.90
15749;DHT22;7976;52.526;13.326;2023-03-31T04:58:05;10.50;99.90
15749;DHT22;7976;52.526;13.326;2023-03-31T05:00:33;10.50;99.90
15749;DHT22;7976;52.526;13.326;2023-03-31T05:03:00;10.50;99.90
15749;DHT22;7976;52.526;13.326;2023-03-31T05:05:27;10.50;99.90
15749;DHT22;7976;52.526;13.326;2023-03-31T05:07:54;10.50;99.90
15749;DHT22;7976;52.526;13.326;2023-03-31T05:10:21;10.50;99.90
15749;DHT22;7976;52.526;13.326;2023-03-31T05:12:48;10.50;99.90
15749;DHT22;7976;52.526;13.326;2023-03-31T05:15:15;10.40;99.90
15749;DHT22;7976;52.526;13.326;2023-03-31T05:17:44;10.40;99.90
15749;DHT22;7976;52.526;13.326;2023-03-31T05:20:11;10.30;99.90
15749;DHT22;7976;52.526;13.326;2023-03-31T05:22:39;10.30;99.90
15749;DHT22;7976;52.526;13.326;2023-03-31T05:25:08;10.30;99.90
15749;DHT22;7976;52.526;13.326;2023-03-31T05:27:36;10.20;99.90
15749;DHT22;7976;52.526;13.326;2023-03-31T05:30:04;10.20;99.90
15749;DHT22;7976;52.526;13.326;2023-03-31T05:32:32;10.20;99.90
15749;DHT22;7976;52.526;13.326;2023-03-31T05:35:00;10.20;99.90
15749;DHT22;7976;52.526;13.326;2023-03-31T05:37:27;10.20;99.90
15749;DHT22;7976;52.526;13.326;2023-03-31T05:39:54;10.20;99.90
15749;DHT22;7976;52.526;13.326;2023-03-31T05:42:21;10.20;99.90
15749;DHT22;7976;52.526;13.326;2023-03-31T05:44:47;10.20;99.90
15749;DHT22;7976;52.526;13.326;2023-03-31T05:47:15;10.20;99.90
15749;DHT22;7976;52.526;13.326;2023-03-31T05:49:42;10.30;99.90
15749;DHT22;7976;52.526;13.326;2023-03-31T05:52:11;10.40;99.90
15749;DHT22;7976;52.526;13.326;2023-03-31T05:54:38;10.50;99.90
15749;DHT22;7976;52.526;13.326;2023-03-31T05:57:05;10.60;99.90
15749;DHT22;7976;52.526;13.326;2023-03-31T05:59:32;10.60;99.90
15749;DHT22;7976;52.526;13.326;2023-03-31T06:02:00;10.70;99.90
15749;DHT22;7976;52.526;13.326;2023-03-31T06:04:27;10.70;99.90
15749;DHT22;7976;52.526;13.326;2023-03-31T06:06:53;10.70;99.90
15749;DHT22;7976;52.526;13.326;2023-03-31T06:09:24;10.80;99.90
15749;DHT22;7976;52.526;13.326;2023-03-31T06:11:52;10.70;99.90
15749;DHT22;7976;52.526;13.326;2023-03-31T06:14:19;10.70;99.90
15749;DHT22;7976;52.526;13.326;2023-03-31T06:16:46;10.70;99.90
15749;DHT22;7976;52.526;13.326;2023-03-31T06:19:13;10.70;99.90
15749;DHT22;7976;52.526;13.326;2023-03-31T06:21:40;10.70;99.90
15749;DHT22;7976;52.526;13.326;2023-03-31T06:24:08;10.70;99.90
15749;DHT22;7976;52.526;13.326;2023-03-31T06:26:36;10.70;99.90
15749;DHT22;7976;52.526;13.326;2023-03-31T06:29:03;10.80;99.90
15749;DHT22;7976;52.526;13.326;2023-03-31T06:31:30;10.90;99.90
15749;DHT22;7976;52.526;13.326;2023-03-31T06:33:57;10.90;99.90
15749;DHT22;7976;52.526;13.326;2023-03-31T06:36:23;10.90;99.90
15749;DHT22;7976;52.526;13.326;2023-03-31T06:38:50;10.90;99.90
15749;DHT22;7976;52.526;13.326;2023-03-31T06:41:17;10.90;99.90
15749;DHT22;7976;52.526;13.326;2023-03-31T06:43:48;10.90;99.90
15749;DHT22;7976;52.526;13.326;2023-03-31T06:46:15;10.90;99.90
15749;DHT22;7976;52.526;13.326;2023-03-31T06:48:42;10.90;99.90
15749;DHT22;7976;52.526;13.326;2023-03-31T06:51:09;11.00;99.90
15749;DHT22;7976;52.526;13.326;2023-03-31T06:53:36;11.00;99.90
15749;DHT22;7976;52.526;13.326;2023-03-31T06:56:03;11.10;99.90
15749;DHT22;7976;52.526;13.326;2023-03-31T06:58:32;11.20;99.90
15749;DHT22;7976;52.526;13.326;2023-03-31T07:01:03;11.20;99.90
15749;DHT22;7976;52.526;13.326;2023-03-31T07:03:33;11.30;99.90
15749;DHT22;7976;52.526;13.326;2023-03-31T07:06:05;11.40;99.90
15749;DHT22;7976;52.526;13.326;2023-03-31T07:08:32;11.50;99.90
15749;DHT22;7976;52.526;13.326;2023-03-31T07:10:59;11.60;99.90
15749;DHT22;7976;52.526;13.326;2023-03-31T07:13:27;11.80;99.90
15749;DHT22;7976;52.526;13.326;2023-03-31T07:15:54;11.90;99.90
15749;DHT22;7976;52.526;13.326;2023-03-31T07:18:23;12.00;99.90
15749;DHT22;7976;52.526;13.326;2023-03-31T07:20:56;12.10;99.90
15749;DHT22;7976;52.526;13.326;2023-03-31T07:23:25;12.30;99.90
15749;DHT22;7976;52.526;13.326;2023-03-31T07:25:52;12.30;99.90
15749;DHT22;7976;52.526;13.326;2023-03-31T07:28:19;12.50;99.90
15749;DHT22;7976;52.526;13.326;2023-03-31T07:30:45;12.60;99.90
15749;DHT22;7976;52.526;13.326;2023-03-31T07:33:12;12.70;99.90
15749;DHT22;7976;52.526;13.326;2023-03-31T07:35:40;12.70;99.90
15749;DHT22;7976;52.526;13.326;2023-03-31T07:38:08;12.80;99.90
15749;DHT22;7976;52.526;13.326;2023-03-31T07:40:36;12.80;99.90
15749;DHT22;7976;52.526;13.326;2023-03-31T07:43:04;12.80;99.90
15749;DHT22;7976;52.526;13.326;2023-03-31T07:45:32;12.80;99.90
15749;DHT22;7976;52.526;13.326;2023-03-31T07:47:59;12.80;99.90
15749;DHT22;7976;52.526;13.326;2023-03-31T07:50:26;12.80;99.90
15749;DHT22;7976;52.526;13.326;2023-03-31T07:52:56;12.90;99.90
15749;DHT22;7976;52.526;13.326;2023-03-31T07:55:23;13.00;99.90
15749;DHT22;7976;52.526;13.326;2023-03-31T07:57:51;13.10;99.90
15749;DHT22;7976;52.526;13.326;2023-03-31T08:00:18;13.20;99.90
15749;DHT22;7976;52.526;13.326;2023-03-31T08:02:45;13.40;99.90
15749;DHT22;7976;52.526;13.326;2023-03-31T08:05:14;13.50;99.90
15749;DHT22;7976;52.526;13.326;2023-03-31T08:07:45;13.60;99.90
15749;DHT22;7976;52.526;13.326;2023-03-31T08:10:17;13.60;99.90
15749;DHT22;7976;52.526;13.326;2023-03-31T08:12:46;13.80;99.90
15749;DHT22;7976;52.526;13.326;2023-03-31T08:15:13;13.80;99.90
15749;DHT22;7976;52.526;13.326;2023-03-31T08:17:40;13.90;99.90
15749;DHT22;7976;52.526;13.326;2023-03-31T08:20:08;13.90;99.90
15749;DHT22;7976;52.526;13.326;2023-03-31T08:22:36;14.00;99.90
15749;DHT22;7976;52.526;13.326;2023-03-31T08:25:06;14.00;99.90
15749;DHT22;7976;52.526;13.326;2023-03-31T08:27:36;14.00;99.90
15749;DHT22;7976;52.526;13.326;2023-03-31T08:30:05;14.10;99.90
15749;DHT22;7976;52.526;13.326;2023-03-31T08:32:34;14.30;99.90
15749;DHT22;7976;52.526;13.326;2023-03-31T08:35:01;14.50;99.90
15749;DHT22;7976;52.526;13.326;2023-03-31T08:37:28;14.60;99.90
15749;DHT22;7976;52.526;13.326;2023-03-31T08:39:56;14.70;99.90
15749;DHT22;7976;52.526;13.326;2023-03-31T08:42:30;14.80;99.90
15749;DHT22;7976;52.526;13.326;2023-03-31T08:45:08;14.80;99.90
15749;DHT22;7976;52.526;13.326;2023-03-31T08:47:43;14.90;99.90
15749;DHT22;7976;52.526;13.326;2023-03-31T08:50:16;14.90;99.90
15749;DHT22;7976;52.526;13.326;2023-03-31T08:53:02;14.90;99.90
15749;DHT22;7976;52.526;13.326;2023-03-31T08:55:37;14.90;99.90
15749;DHT22;7976;52.526;13.326;2023-03-31T08:58:20;14.90;99.90
15749;DHT22;7976;52.526;13.326;2023-03-31T09:01:02;14.80;99.90
15749;DHT22;7976;52.526;13.326;2023-03-31T09:03:45;14.80;99.90
15749;DHT22;7976;52.526;13.326;2023-03-31T09:06:35;14.80;99.90
15749;DHT22;7976;52.526;13.326;2023-03-31T09:09:10;14.80;99.90
15749;DHT22;7976;52.526;13.326;2023-03-31T09:11:49;15.00;99.90
15749;DHT22;7976;52.526;13.326;2023-03-31T09:14:30;15.10;99.90
15749;DHT22;7976;52.526;13.326;2023-03-31T09:17:12;15.30;99.90
15749;DHT22;7976;52.526;13.326;2023-03-31T09:19:49;15.40;99.90
15749;DHT22;7976;52.526;13.326;2023-03-31T09:22:23;15.50;99.90
15749;DHT22;7976;52.526;13.326;2023-03-31T09:24:58;15.60;99.90
15749;DHT22;7976;52.526;13.326;2023-03-31T09:27:30;15.70;99.90
15749;DHT22;7976;52.526;13.326;2023-03-31T09:30:10;15.80;99.90
15749;DHT22;7976;52.526;13.326;2023-03-31T09:32:42;15.90;99.90
15749;DHT22;7976;52.526;13.326;2023-03-31T09:35:16;16.00;99.90
15749;DHT22;7976;52.526;13.326;2023-03-31T09:37:47;16.20;99.90
15749;DHT22;7976;52.526;13.326;2023-03-31T09:40:18;16.30;99.90
15749;DHT22;7976;52.526;13.326;2023-03-31T09:42:51;16.30;99.90
15749;DHT22;7976;52.526;13.326;2023-03-31T09:45:24;16.40;99.90
15749;DHT22;7976;52.526;13.326;2023-03-31T09:47:53;16.40;99.90
15749;DHT22;7976;52.526;13.326;2023-03-31T09:50:23;16.40;99.90
15749;DHT22;7976;52.526;13.326;2023-03-31T09:52:53;16.30;99.90
15749;DHT22;7976;52.526;13.326;2023-03-31T09:55:25;16.20;99.90
15749;DHT22;7976;52.526;13.326;2023-03-31T09:57:59;15.90;99.90
15749;DHT22;7976;52.526;13.326;2023-03-31T10:00:28;15.60;99.90
15749;DHT22;7976;52.526;13.326;2023-03-31T10:02:56;15.30;99.90
15749;DHT22;7976;52.526;13.326;2023-03-31T10:05:33;15.10;99.90
15749;DHT22;7976;52.526;13.326;2023-03-31T10:08:21;14.90;99.90
15749;DHT22;7976;52.526;13.326;2023-03-31T10:10:53;14.70;99.90
15749;DHT22;7976;52.526;13.326;2023-03-31T10:13:23;14.50;99.90
15749;DHT22;7976;52.526;13.326;2023-03-31T10:15:54;14.40;99.90
15749;DHT22;7976;52.526;13.326;2023-03-31T10:18:32;14.30;99.90
15749;DHT22;7976;52.526;13.326;2023-03-31T10:21:02;14.30;99.90
15749;DHT22;7976;52.526;13.326;2023-03-31T10:23:32;14.20;99.90
15749;DHT22;7976;52.526;13.326;2023-03-31T10:26:02;14.20;99.90
15749;DHT22;7976;52.526;13.326;2023-03-31T10:28:32;14.30;99.90
15749;DHT22;7976;52.526;13.326;2023-03-31T10:31:02;14.40;99.90
15749;DHT22;7976;52.526;13.326;2023-03-31T10:33:30;14.70;99.90
15749;DHT22;7976;52.526;13.326;2023-03-31T10:36:02;15.00;99.90
15749;DHT22;7976;52.526;13.326;2023-03-31T10:38:36;15.20;99.90
15749;DHT22;7976;52.526;13.326;2023-03-31T10:41:05;15.30;99.90
15749;DHT22;7976;52.526;13.326;2023-03-31T10:43:36;15.40;99.90
15749;DHT22;7976;52.526;13.326;2023-03-31T10:46:08;15.50;99.90
15749;DHT22;7976;52.526;13.326;2023-03-31T10:48:37;15.50;99.90
15749;DHT22;7976;52.526;13.326;2023-03-31T10:51:11;15.60;99.90
15749;DHT22;7976;52.526;13.326;2023-03-31T10:53:44;15.70;99.90
15749;DHT22;7976;52.526;13.326;2023-03-31T10:56:27;15.70;99.90
15749;DHT22;7976;52.526;13.326;2023-03-31T10:59:19;15.50;99.90
15749;DHT22;7976;52.526;13.326;2023-03-31T11:02:20;15.40;99.90
15749;DHT22;7976;52.526;13.326;2023-03-31T11:05:14;15.30;99.90
15749;DHT22;7976;52.526;13.326;2023-03-31T11:07:58;15.50;99.90
15749;DHT22;7976;52.526;13.326;2023-03-31T11:10:49;15.60;99.90
15749;DHT22;7976;52.526;13.326;2023-03-31T11:13:34;15.70;99.90
15749;DHT22;7976;52.526;13.326;2023-03-31T11:16:17;15.80;99.90
15749;DHT22;7976;52.526;13.326;2023-03-31T11:19:03;16.00;99.90
15749;DHT22;7976;52.526;13.326;2023-03-31T11:21:52;15.90;99.90
15749;DHT22;7976;52.526;13.326;2023-03-31T11:24:40;16.10;99.90
15749;DHT22;7976;52.526;13.326;2023-03-31T11:27:40;16.20;99.90
15749;DHT22;7976;52.526;13.326;2023-03-31T11:30:21;16.20;99.90
15749;DHT22;7976;52.526;13.326;2023-03-31T11:33:02;16.30;99.90
15749;DHT22;7976;52.526;13.326;2023-03-31T11:35:50;16.30;99.90
15749;DHT22;7976;52.526;13.326;2023-03-31T11:38:37;16.30;99.90
15749;DHT22;7976;52.526;13.326;2023-03-31T11:41:19;16.20;99.90
15749;DHT22;7976;52.526;13.326;2023-03-31T11:43:53;16.00;99.90
15749;DHT22;7976;52.526;13.326;2023-03-31T11:46:29;16.00;99.90
15749;DHT22;7976;52.526;13.326;2023-03-31T11:49:03;16.00;99.90
15749;DHT22;7976;52.526;13.326;2023-03-31T11:51:42;15.90;99.90
15749;DHT22;7976;52.526;13.326;2023-03-31T11:54:17;16.00;99.90
15749;DHT22;7976;52.526;13.326;2023-03-31T11:56:50;16.00;99.90
15749;DHT22;7976;52.526;13.326;2023-03-31T11:59:24;16.10;99.90
15749;DHT22;7976;52.526;13.326;2023-03-31T12:02:01;16.10;99.90
15749;DHT22;7976;52.526;13.326;2023-03-31T12:04:37;16.20;99.90
15749;DHT22;7976;52.526;13.326;2023-03-31T12:07:21;16.10;99.90
15749;DHT22;7976;52.526;13.326;2023-03-31T12:09:59;16.10;99.90
15749;DHT22;7976;52.526;13.326;2023-03-31T12:12:33;15.90;99.90
15749;DHT22;7976;52.526;13.326;2023-03-31T12:15:12;15.70;99.90
15749;DHT22;7976;52.526;13.326;2023-03-31T12:17:47;15.50;99.90
15749;DHT22;7976;52.526;13.326;2023-03-31T12:20:24;15.20;99.90
15749;DHT22;7976;52.526;13.326;2023-03-31T12:23:03;15.20;99.90
15749;DHT22;7976;52.526;13.326;2023-03-31T12:25:48;15.10;99.90
15749;DHT22;7976;52.526;13.326;2023-03-31T12:28:22;15.20;99.90
15749;DHT22;7976;52.526;13.326;2023-03-31T12:30:53;15.30;99.90
15749;DHT22;7976;52.526;13.326;2023-03-31T12:33:26;15.50;99.90
15749;DHT22;7976;52.526;13.326;2023-03-31T12:36:07;15.60;99.90
15749;DHT22;7976;52.526;13.326;2023-03-31T12:38:57;15.60;99.90
15749;DHT22;7976;52.526;13.326;2023-03-31T12:41:38;15.60;99.90
15749;DHT22;7976;52.526;13.326;2023-03-31T12:44:23;15.60;99.90
15749;DHT22;7976;52.526;13.326;2023-03-31T12:47:31;15.60;99.90
15749;DHT22;7976;52.526;13.326;2023-03-31T12:50:30;15.50;99.90
15749;DHT22;7976;52.526;13.326;2023-03-31T12:53:14;15.30;99.90
15749;DHT22;7976;52.526;13.326;2023-03-31T12:55:54;15.20;99.90
15749;DHT22;7976;52.526;13.326;2023-03-31T12:58:43;14.90;99.90
15749;DHT22;7976;52.526;13.326;2023-03-31T13:01:14;14.60;99.90
15749;DHT22;7976;52.526;13.326;2023-03-31T13:03:49;14.30;99.90
15749;DHT22;7976;52.526;13.326;2023-03-31T13:06:50;14.00;99.90
15749;DHT22;7976;52.526;13.326;2023-03-31T13:09:45;13.70;99.90
15749;DHT22;7976;52.526;13.326;2023-03-31T13:12:17;13.30;99.90
15749;DHT22;7976;52.526;13.326;2023-03-31T13:14:47;13.20;99.90
15749;DHT22;7976;52.526;13.326;2023-03-31T13:17:31;13.10;99.90
15749;DHT22;7976;52.526;13.326;2023-03-31T13:20:29;13.00;99.90
15749;DHT22;7976;52.526;13.326;2023-03-31T13:23:03;12.80;99.90
15749;DHT22;7976;52.526;13.326;2023-03-31T13:25:40;12.70;99.90
15749;DHT22;7976;52.526;13.326;2023-03-31T13:28:15;12.70;99.90
15749;DHT22;7976;52.526;13.326;2023-03-31T13:30:55;12.60;99.90
15749;DHT22;7976;52.526;13.326;2023-03-31T13:33:29;12.50;99.90
15749;DHT22;7976;52.526;13.326;2023-03-31T13:36:42;12.50;99.90
15749;DHT22;7976;52.526;13.326;2023-03-31T13:39:44;12.40;99.90
15749;DHT22;7976;52.526;13.326;2023-03-31T13:43:03;12.30;99.90
15749;DHT22;7976;52.526;13.326;2023-03-31T13:45:51;12.20;99.90
15749;DHT22;7976;52.526;13.326;2023-03-31T13:48:43;12.20;99.90
15749;DHT22;7976;52.526;13.326;2023-03-31T13:51:32;12.20;99.90
15749;DHT22;7976;52.526;13.326;2023-03-31T13:54:45;12.20;99.90
15749;DHT22;7976;52.526;13.326;2023-03-31T13:57:56;12.20;99.90
15749;DHT22;7976;52.526;13.326;2023-03-31T14:00:49;12.20;99.90
15749;DHT22;7976;52.526;13.326;2023-03-31T14:03:54;12.00;99.90
15749;DHT22;7976;52.526;13.326;2023-03-31T14:06:34;11.90;99.90
15749;DHT22;7976;52.526;13.326;2023-03-31T14:09:06;11.80;99.90
15749;DHT22;7976;52.526;13.326;2023-03-31T14:11:38;11.70;99.90
15749;DHT22;7976;52.526;13.326;2023-03-31T14:14:11;11.60;99.90
15749;DHT22;7976;52.526;13.326;2023-03-31T14:16:44;11.60;99.90
15749;DHT22;7976;52.526;13.326;2023-03-31T14:22:30;11.50;99.90
15749;DHT22;7976;52.526;13.326;2023-03-31T14:25:12;11.50;99.90
15749;DHT22;7976;52.526;13.326;2023-03-31T14:27:56;11.60;99.90
15749;DHT22;7976;52.526;13.326;2023-03-31T14:30:36;11.60;99.90
15749;DHT22;7976;52.526;13.326;2023-03-31T14:33:26;11.50;99.90
15749;DHT22;7976;52.526;13.326;2023-03-31T14:36:07;11.50;99.90
15749;DHT22;7976;52.526;13.326;2023-03-31T14:38:40;11.40;99.90
15749;DHT22;7976;52.526;13.326;2023-03-31T14:41:16;11.40;99.90
15749;DHT22;7976;52.526;13.326;2023-03-31T14:43:47;11.40;99.90
15749;DHT22;7976;52.526;13.326;2023-03-31T14:46:19;11.30;99.90
15749;DHT22;7976;52.526;13.326;2023-03-31T14:48:50;11.40;99.90
15749;DHT22;7976;52.526;13.326;2023-03-31T14:51:22;11.30;99.90
15749;DHT22;7976;52.526;13.326;2023-03-31T14:53:55;11.30;99.90
15749;DHT22;7976;52.526;13.326;2023-03-31T14:56:30;11.20;99.90
15749;DHT22;7976;52.526;13.326;2023-03-31T14:59:02;11.20;99.90
15749;DHT22;7976;52.526;13.326;2023-03-31T15:01:33;11.20;99.90
15749;DHT22;7976;52.526;13.326;2023-03-31T15:04:07;11.20;99.90
15749;DHT22;7976;52.526;13.326;2023-03-31T15:06:37;11.20;99.90
15749;DHT22;7976;52.526;13.326;2023-03-31T15:09:09;11.20;99.90
15749;DHT22;7976;52.526;13.326;2023-03-31T15:11:45;11.10;99.90
15749;DHT22;7976;52.526;13.326;2023-03-31T15:14:12;11.10;99.90
15749;DHT22;7976;52.526;13.326;2023-03-31T15:16:41;11.10;99.90
15749;DHT22;7976;52.526;13.326;2023-03-31T15:19:16;11.10;99.90
15749;DHT22;7976;52.526;13.326;2023-03-31T15:21:44;11.10;99.90
15749;DHT22;7976;52.526;13.326;2023-03-31T15:24:13;11.10;99.90
15749;DHT22;7976;52.526;13.326;2023-03-31T15:26:43;11.10;99.90
15749;DHT22;7976;52.526;13.326;2023-03-31T15:29:17;11.10;99.90
15749;DHT22;7976;52.526;13.326;2023-03-31T15:32:03;11.10;99.90
15749;DHT22;7976;52.526;13.326;2023-03-31T15:34:41;11.10;99.90
15749;DHT22;7976;52.526;13.326;2023-03-31T15:37:11;11.20;99.90
15749;DHT22;7976;52.526;13.326;2023-03-31T15:39:38;11.10;99.90
15749;DHT22;7976;52.526;13.326;2023-03-31T15:42:11;11.10;99.90
15749;DHT22;7976;52.526;13.326;2023-03-31T15:44:43;11.20;99.90
15749;DHT22;7976;52.526;13.326;2023-03-31T15:47:15;11.20;99.90
15749;DHT22;7976;52.526;13.326;2023-03-31T15:49:53;11.20;99.90
15749;DHT22;7976;52.526;13.326;2023-03-31T15:52:28;11.20;99.90
15749;DHT22;7976;52.526;13.326;2023-03-31T15:54:59;11.20;99.90
15749;DHT22;7976;52.526;13.326;2023-03-31T15:57:34;11.20;99.90
15749;DHT22;7976;52.526;13.326;2023-03-31T16:00:02;11.20;99.90
15749;DHT22;7976;52.526;13.326;2023-03-31T16:02:41;11.20;99.90
15749;DHT22;7976;52.526;13.326;2023-03-31T16:05:23;11.20;99.90
15749;DHT22;7976;52.526;13.326;2023-03-31T16:08:03;11.20;99.90
15749;DHT22;7976;52.526;13.326;2023-03-31T16:10:35;11.20;99.90
15749;DHT22;7976;52.526;13.326;2023-03-31T16:13:04;11.30;99.90
15749;DHT22;7976;52.526;13.326;2023-03-31T16:15:39;11.30;99.90
15749;DHT22;7976;52.526;13.326;2023-03-31T16:18:11;11.40;99.90
15749;DHT22;7976;52.526;13.326;2023-03-31T16:20:43;11.40;99.90
15749;DHT22;7976;52.526;13.326;2023-03-31T16:23:20;11.30;99.90
15749;DHT22;7976;52.526;13.326;2023-03-31T16:25:51;11.30;99.90
15749;DHT22;7976;52.526;13.326;2023-03-31T16:28:20;11.30;99.90
15749;DHT22;7976;52.526;13.326;2023-03-31T16:30:49;11.30;99.90